createdAt,value
2017-12-19T00:01:02.799Z,3.30
2017-12-19T00:03:30.380Z,3.30
2017-12-19T00:05:57.844Z,3.20
2017-12-19T00:08:25.317Z,3.30
2017-12-19T00:10:53.543Z,3.30
2017-12-19T00:13:21.006Z,3.30
2017-12-19T00:15:48.463Z,3.20
2017-12-19T00:18:15.935Z,3.10
2017-12-19T00:20:43.391Z,3.10
2017-12-19T00:23:10.862Z,3.10
2017-12-19T00:25:38.326Z,3.10
2017-12-19T00:28:06.559Z,3.10
2017-12-19T00:30:34.019Z,3.10
2017-12-19T00:33:01.516Z,3.00
2017-12-19T00:35:29.743Z,3.20
2017-12-19T00:37:57.220Z,3.20
2017-12-19T00:40:24.680Z,3.20
2017-12-19T00:42:52.155Z,3.10
2017-12-19T00:45:19.606Z,3.10
2017-12-19T00:47:47.092Z,3.10
2017-12-19T00:50:15.312Z,3.10
2017-12-19T00:52:42.778Z,3.10
2017-12-19T00:55:10.246Z,3.00
2017-12-19T00:57:37.716Z,3.10
2017-12-19T01:00:05.190Z,3.10
2017-12-19T01:02:33.444Z,3.30
2017-12-19T01:05:00.904Z,3.30
2017-12-19T01:07:28.363Z,3.20
2017-12-19T01:09:56.603Z,3.20
2017-12-19T01:12:24.064Z,3.20
2017-12-19T01:14:51.535Z,3.10
2017-12-19T01:17:18.996Z,3.20
2017-12-19T01:19:46.472Z,3.30
2017-12-19T01:22:14.695Z,3.20
2017-12-19T01:24:42.164Z,3.20
2017-12-19T01:27:09.624Z,3.10
2017-12-19T01:29:37.095Z,3.00
2017-12-19T01:32:04.563Z,2.90
2017-12-19T01:34:32.039Z,2.90
2017-12-19T01:37:00.268Z,2.90
2017-12-19T01:39:27.749Z,2.90
2017-12-19T01:41:55.203Z,2.90
2017-12-19T01:44:22.683Z,2.90
2017-12-19T01:46:50.911Z,3.10
2017-12-19T01:49:18.381Z,3.10
2017-12-19T01:51:45.835Z,3.10
2017-12-19T01:54:13.316Z,3.00
2017-12-19T01:56:40.785Z,2.90
2017-12-19T01:59:09.036Z,3.00
2017-12-19T02:01:36.512Z,3.00
2017-12-19T02:04:04.740Z,3.00
2017-12-19T02:06:32.211Z,3.00
2017-12-19T02:08:59.671Z,3.10
2017-12-19T02:11:27.147Z,3.00
2017-12-19T02:13:54.613Z,3.10
2017-12-19T02:16:22.856Z,3.10
2017-12-19T02:18:50.327Z,3.10
2017-12-19T02:21:17.799Z,3.10
2017-12-19T02:23:46.033Z,3.10
2017-12-19T02:26:13.509Z,3.10
2017-12-19T02:28:40.962Z,3.10
2017-12-19T02:31:08.431Z,3.20
2017-12-19T02:33:35.888Z,3.30
2017-12-19T02:36:03.355Z,3.20
2017-12-19T02:38:31.579Z,3.20
2017-12-19T02:40:59.055Z,3.20
2017-12-19T02:43:26.522Z,3.10
2017-12-19T02:45:53.987Z,3.20
2017-12-19T02:48:21.444Z,3.00
2017-12-19T02:50:48.916Z,3.10
2017-12-19T02:53:17.144Z,3.20
2017-12-19T02:55:44.632Z,3.10
2017-12-19T02:58:12.092Z,3.20
2017-12-19T03:00:39.551Z,3.10
2017-12-19T03:03:07.020Z,3.10
2017-12-19T03:05:34.481Z,3.10
2017-12-19T03:08:02.711Z,3.10
2017-12-19T03:10:30.173Z,3.10
2017-12-19T03:12:57.644Z,3.00
2017-12-19T03:15:25.101Z,3.10
2017-12-19T03:17:52.571Z,3.00
2017-12-19T03:20:20.029Z,3.10
2017-12-19T03:22:47.499Z,3.10
2017-12-19T03:25:15.730Z,3.00
2017-12-19T03:27:43.195Z,3.00
2017-12-19T03:30:10.652Z,3.10
2017-12-19T03:32:38.123Z,3.10
2017-12-19T03:35:05.583Z,3.10
2017-12-19T03:37:33.055Z,3.00
2017-12-19T03:40:01.275Z,3.00
2017-12-19T03:42:28.751Z,2.90
2017-12-19T03:44:56.209Z,3.00
2017-12-19T03:47:23.679Z,3.00
2017-12-19T03:49:51.140Z,3.00
2017-12-19T03:52:18.606Z,3.00
2017-12-19T03:54:46.067Z,3.00
2017-12-19T03:57:14.298Z,3.00
2017-12-19T03:59:41.762Z,3.00
2017-12-19T04:02:09.243Z,2.90
2017-12-19T04:04:36.707Z,2.90
2017-12-19T04:07:04.163Z,3.00
2017-12-19T04:09:31.639Z,3.00
2017-12-19T04:11:59.864Z,2.90
2017-12-19T04:14:27.335Z,2.90
2017-12-19T04:16:54.791Z,3.00
2017-12-19T04:19:22.263Z,2.90
2017-12-19T04:21:49.719Z,3.00
2017-12-19T04:24:17.191Z,2.90
2017-12-19T04:26:45.414Z,2.90
2017-12-19T04:29:12.883Z,2.90
2017-12-19T04:31:40.351Z,2.90
2017-12-19T04:34:07.819Z,2.90
2017-12-19T04:36:35.279Z,3.00
2017-12-19T04:39:02.752Z,3.10
2017-12-19T04:41:30.979Z,3.20
2017-12-19T04:43:58.456Z,3.20
2017-12-19T04:46:25.907Z,3.20
2017-12-19T04:48:53.375Z,3.20
2017-12-19T04:51:20.837Z,3.20
2017-12-19T04:53:48.311Z,3.20
2017-12-19T04:56:16.568Z,3.20
2017-12-19T04:58:44.040Z,3.20
2017-12-19T05:01:11.492Z,3.30
2017-12-19T05:03:38.964Z,3.30
2017-12-19T05:06:07.181Z,3.30
2017-12-19T05:08:34.654Z,3.30
2017-12-19T05:11:02.115Z,3.20
2017-12-19T05:13:29.587Z,3.10
2017-12-19T05:15:57.043Z,3.20
2017-12-19T05:18:24.500Z,3.20
2017-12-19T05:20:52.787Z,3.30
2017-12-19T05:23:21.011Z,3.30
2017-12-19T05:25:48.483Z,3.20
2017-12-19T05:28:15.939Z,3.30
2017-12-19T05:30:43.410Z,3.30
2017-12-19T05:33:10.875Z,3.30
2017-12-19T05:35:38.343Z,3.20
2017-12-19T05:38:05.795Z,3.20
2017-12-19T05:40:34.051Z,3.20
2017-12-19T05:43:01.514Z,3.20
2017-12-19T05:45:28.976Z,3.20
2017-12-19T05:47:56.433Z,3.20
2017-12-19T05:50:23.903Z,3.20
2017-12-19T05:52:52.126Z,3.20
2017-12-19T05:55:19.594Z,3.20
2017-12-19T05:57:47.056Z,3.30
2017-12-19T06:00:14.544Z,3.20
2017-12-19T06:02:42.001Z,3.30
2017-12-19T06:05:09.463Z,3.30
2017-12-19T06:07:37.691Z,3.30
2017-12-19T06:10:05.166Z,3.30
2017-12-19T06:12:32.627Z,3.30
2017-12-19T06:15:00.107Z,3.30
2017-12-19T06:17:27.559Z,3.30
2017-12-19T06:19:55.075Z,3.30
2017-12-19T06:22:22.535Z,3.30
2017-12-19T06:24:50.010Z,3.40
2017-12-19T06:27:17.479Z,3.40
2017-12-19T06:29:44.939Z,3.40
2017-12-19T06:32:12.403Z,3.40
2017-12-19T06:34:39.867Z,3.40
2017-12-19T06:37:08.111Z,3.50
2017-12-19T06:39:36.532Z,3.50
2017-12-19T06:42:04.771Z,3.60
2017-12-19T06:44:32.223Z,3.60
2017-12-19T06:46:59.694Z,3.60
2017-12-19T06:49:27.155Z,3.60
2017-12-19T06:51:54.630Z,3.50
2017-12-19T06:54:22.879Z,3.60
2017-12-19T06:56:50.343Z,3.60
2017-12-19T06:59:17.799Z,3.60
2017-12-19T07:01:45.279Z,3.60
2017-12-19T07:04:13.499Z,3.60
2017-12-19T07:06:40.970Z,3.60
2017-12-19T07:09:08.431Z,3.60
2017-12-19T07:11:35.912Z,3.50
2017-12-19T07:14:03.366Z,3.50
2017-12-19T07:16:30.838Z,3.50
2017-12-19T07:18:59.063Z,3.40
2017-12-19T07:21:26.524Z,3.40
2017-12-19T07:23:53.991Z,3.40
2017-12-19T07:26:21.464Z,3.40
2017-12-19T07:28:48.916Z,3.40
2017-12-19T07:31:16.384Z,3.40
2017-12-19T07:33:43.842Z,3.40
2017-12-19T07:36:12.084Z,3.40
2017-12-19T07:38:39.616Z,3.40
2017-12-19T07:41:07.088Z,3.50
2017-12-19T07:43:34.546Z,3.50
2017-12-19T07:46:02.014Z,3.50
2017-12-19T07:48:29.475Z,3.50
2017-12-19T07:50:56.973Z,3.60
2017-12-19T07:53:24.411Z,3.60
2017-12-19T07:55:51.882Z,3.60
2017-12-19T07:58:20.111Z,3.70
2017-12-19T08:00:47.573Z,3.70
2017-12-19T08:03:15.803Z,3.70
2017-12-19T08:05:43.263Z,3.60
2017-12-19T08:08:10.739Z,3.70
2017-12-19T08:10:38.198Z,3.70
2017-12-19T08:13:05.667Z,3.80
2017-12-19T08:15:33.128Z,3.70
2017-12-19T08:18:01.367Z,3.80
2017-12-19T08:20:28.838Z,3.80
2017-12-19T08:22:56.298Z,3.90
2017-12-19T08:25:23.764Z,3.80
2017-12-19T08:27:51.231Z,3.80
2017-12-19T08:30:18.686Z,3.80
2017-12-19T08:32:46.924Z,3.80
2017-12-19T08:35:14.387Z,3.80
2017-12-19T08:37:41.875Z,3.80
2017-12-19T08:40:09.328Z,3.70
2017-12-19T08:42:40.124Z,3.70
2017-12-19T08:45:08.347Z,3.70
2017-12-19T08:47:35.803Z,3.70
2017-12-19T08:50:03.283Z,3.60
2017-12-19T08:52:30.740Z,3.60
2017-12-19T08:54:58.211Z,3.60
2017-12-19T08:57:26.440Z,3.70
2017-12-19T08:59:53.910Z,3.70
2017-12-19T09:02:21.383Z,3.70
2017-12-19T09:04:48.863Z,3.60
2017-12-19T09:07:17.084Z,3.60
2017-12-19T09:09:44.555Z,3.60
2017-12-19T09:12:12.016Z,3.70
2017-12-19T09:14:39.483Z,3.70
2017-12-19T09:17:06.944Z,3.80
2017-12-19T09:19:34.428Z,3.80
2017-12-19T09:22:02.643Z,3.80
2017-12-19T09:24:30.111Z,3.80
2017-12-19T09:26:57.567Z,3.70
2017-12-19T09:29:25.038Z,3.70
2017-12-19T09:31:52.506Z,3.70
2017-12-19T09:34:20.790Z,3.70
2017-12-19T09:36:48.247Z,3.70
2017-12-19T09:39:15.720Z,3.70
2017-12-19T09:41:43.943Z,3.80
2017-12-19T09:44:11.415Z,3.80
2017-12-19T09:46:38.940Z,3.80
2017-12-19T09:49:06.437Z,3.90
2017-12-19T09:51:33.871Z,3.90
2017-12-19T09:54:01.340Z,4.00
2017-12-19T09:56:28.803Z,4.00
2017-12-19T09:58:56.270Z,4.10
2017-12-19T10:01:23.735Z,4.10
2017-12-19T10:03:51.206Z,4.10
2017-12-19T10:06:19.427Z,4.10
2017-12-19T10:08:46.903Z,4.10
2017-12-19T10:11:14.358Z,4.10
2017-12-19T10:13:41.823Z,4.00
2017-12-19T10:16:09.287Z,4.00
2017-12-19T10:18:36.762Z,4.10
2017-12-19T10:21:04.985Z,4.10
2017-12-19T10:23:32.458Z,4.10
2017-12-19T10:25:59.915Z,4.10
2017-12-19T10:28:27.383Z,3.90
2017-12-19T10:30:54.845Z,4.00
2017-12-19T10:33:22.316Z,4.00
2017-12-19T10:35:50.544Z,4.10
2017-12-19T10:38:18.003Z,4.10
2017-12-19T10:40:45.500Z,4.10
2017-12-19T10:43:12.939Z,4.10
2017-12-19T10:45:40.407Z,4.20
2017-12-19T10:48:07.864Z,4.30
2017-12-19T10:50:35.338Z,4.50
2017-12-19T10:53:03.555Z,4.50
2017-12-19T10:55:31.026Z,4.40
2017-12-19T10:57:58.747Z,4.50
2017-12-19T11:00:26.980Z,4.40
2017-12-19T11:02:54.437Z,4.30
2017-12-19T11:05:21.905Z,4.30
2017-12-19T11:07:49.359Z,4.30
2017-12-19T11:10:16.839Z,4.30
2017-12-19T11:12:45.055Z,4.40
2017-12-19T11:15:12.526Z,4.40
2017-12-19T11:17:39.983Z,4.50
2017-12-19T11:20:07.452Z,4.50
2017-12-19T11:22:34.911Z,4.60
2017-12-19T11:25:02.682Z,4.70
2017-12-19T11:27:30.135Z,4.80
2017-12-19T11:29:57.606Z,4.80
2017-12-19T11:32:25.831Z,4.80
2017-12-19T11:34:53.303Z,4.80
2017-12-19T11:37:20.772Z,4.90
2017-12-19T11:39:48.243Z,4.90
2017-12-19T11:42:15.716Z,5.00
2017-12-19T11:44:43.956Z,5.00
2017-12-19T11:47:11.419Z,5.00
2017-12-19T11:49:38.876Z,5.10
2017-12-19T11:52:06.347Z,5.10
2017-12-19T11:54:33.807Z,5.00
2017-12-19T11:57:01.283Z,5.10
2017-12-19T11:59:29.512Z,5.10
2017-12-19T12:01:57.000Z,5.10
2017-12-19T12:04:24.447Z,5.10
2017-12-19T12:06:51.920Z,5.00
2017-12-19T12:09:20.143Z,5.00
2017-12-19T12:11:47.619Z,5.00
2017-12-19T12:14:15.075Z,5.00
2017-12-19T12:16:42.555Z,5.00
2017-12-19T12:19:10.022Z,5.00
2017-12-19T12:21:37.483Z,5.00
2017-12-19T12:24:05.712Z,5.10
2017-12-19T12:26:33.202Z,5.10
2017-12-19T12:29:00.640Z,5.20
2017-12-19T12:31:28.110Z,5.20
2017-12-19T12:33:55.576Z,5.30
2017-12-19T12:36:23.830Z,5.20
2017-12-19T12:38:51.295Z,5.20
2017-12-19T12:41:18.764Z,5.20
2017-12-19T12:43:46.223Z,5.20
2017-12-19T12:46:14.463Z,5.20
2017-12-19T12:48:41.931Z,5.20
2017-12-19T12:51:09.414Z,5.10
2017-12-19T12:53:36.871Z,5.20
2017-12-19T12:56:05.096Z,5.30
2017-12-19T12:58:32.571Z,5.30
2017-12-19T13:01:00.038Z,5.30
2017-12-19T13:03:27.514Z,5.30
2017-12-19T13:05:54.971Z,5.30
2017-12-19T13:08:22.443Z,5.30
2017-12-19T13:10:50.672Z,5.30
2017-12-19T13:13:18.143Z,5.30
2017-12-19T13:15:45.595Z,5.30
2017-12-19T13:18:13.071Z,5.30
2017-12-19T13:20:40.531Z,5.30
2017-12-19T13:23:08.767Z,5.20
2017-12-19T13:25:36.231Z,5.20
2017-12-19T13:28:03.759Z,5.20
2017-12-19T13:30:31.247Z,5.20
2017-12-19T13:32:58.715Z,5.20
2017-12-19T13:35:27.067Z,5.20
2017-12-19T13:37:54.535Z,5.30
2017-12-19T13:40:22.023Z,5.20
2017-12-19T13:42:49.493Z,5.20
2017-12-19T13:45:17.719Z,5.20
2017-12-19T13:47:45.196Z,5.20
2017-12-19T13:50:12.661Z,5.20
2017-12-19T13:52:40.171Z,5.20
2017-12-19T13:55:07.628Z,5.20
2017-12-19T13:57:35.104Z,5.30
2017-12-19T14:00:02.559Z,5.30
2017-12-19T14:02:30.031Z,5.30
2017-12-19T14:04:58.281Z,5.30
2017-12-19T14:07:25.752Z,5.30
2017-12-19T14:09:53.223Z,5.40
2017-12-19T14:12:20.680Z,5.40
2017-12-19T14:14:48.148Z,5.40
2017-12-19T14:17:15.607Z,5.50
2017-12-19T14:19:43.079Z,5.40
2017-12-19T14:22:11.315Z,5.40
2017-12-19T14:24:38.788Z,5.30
2017-12-19T14:27:06.251Z,5.40
2017-12-19T14:29:33.720Z,5.40
2017-12-19T14:32:01.944Z,5.40
2017-12-19T14:34:29.415Z,5.40
2017-12-19T14:36:56.891Z,5.40
2017-12-19T14:39:24.360Z,5.40
2017-12-19T14:41:51.815Z,5.40
2017-12-19T14:44:19.291Z,5.40
2017-12-19T14:46:47.527Z,5.40
2017-12-19T14:49:14.999Z,5.30
2017-12-19T14:51:42.463Z,5.40
2017-12-19T14:54:09.935Z,5.40
2017-12-19T14:56:38.163Z,5.40
2017-12-19T14:59:05.636Z,5.40
2017-12-19T15:01:33.103Z,5.40
2017-12-19T15:04:00.575Z,5.40
2017-12-19T15:06:28.805Z,5.30
2017-12-19T15:08:56.284Z,5.30
2017-12-19T15:11:23.752Z,5.40
2017-12-19T15:13:51.221Z,5.40
2017-12-19T15:16:18.679Z,5.40
2017-12-19T15:18:46.919Z,5.40
2017-12-19T15:21:14.375Z,5.40
2017-12-19T15:23:41.834Z,5.30
2017-12-19T15:26:09.307Z,5.30
2017-12-19T15:28:36.770Z,5.40
2017-12-19T15:31:04.235Z,5.40
2017-12-19T15:33:32.463Z,5.50
2017-12-19T15:35:59.935Z,5.50
2017-12-19T15:38:27.395Z,5.50
2017-12-19T15:40:54.866Z,5.50
2017-12-19T15:43:22.323Z,5.40
2017-12-19T15:45:49.792Z,5.50
2017-12-19T15:48:17.246Z,5.40
2017-12-19T15:50:44.727Z,5.40
2017-12-19T15:53:12.951Z,5.50
2017-12-19T15:55:40.419Z,5.50
2017-12-19T15:58:07.877Z,5.50
2017-12-19T16:00:35.354Z,5.50
2017-12-19T16:03:02.812Z,5.50
2017-12-19T16:05:30.287Z,5.80
2017-12-19T16:07:58.505Z,5.90
2017-12-19T16:10:25.971Z,5.90
2017-12-19T16:12:53.432Z,5.80
2017-12-19T16:15:20.905Z,5.80
2017-12-19T16:17:48.358Z,5.90
2017-12-19T16:20:15.835Z,5.90
2017-12-19T16:22:44.307Z,5.90
2017-12-19T16:25:11.776Z,5.80
2017-12-19T16:27:39.996Z,5.80
2017-12-19T16:30:07.463Z,5.80
2017-12-19T16:32:34.923Z,5.80
2017-12-19T16:35:02.402Z,5.80
2017-12-19T16:37:29.856Z,5.80
2017-12-19T16:39:57.331Z,5.80
2017-12-19T16:42:25.552Z,5.90
2017-12-19T16:44:53.023Z,5.90
2017-12-19T16:47:20.479Z,5.90
2017-12-19T16:49:47.956Z,6.00
2017-12-19T16:52:15.428Z,6.00
2017-12-19T16:54:42.887Z,6.00
2017-12-19T16:57:11.120Z,5.90
2017-12-19T16:59:38.580Z,5.90
2017-12-19T17:02:06.048Z,5.80
2017-12-19T17:04:33.512Z,5.80
2017-12-19T17:07:00.983Z,5.60
2017-12-19T17:09:28.444Z,5.60
2017-12-19T17:11:56.689Z,5.60
2017-12-19T17:14:24.144Z,5.60
2017-12-19T17:16:51.616Z,5.60
2017-12-19T17:19:19.072Z,5.70
2017-12-19T17:21:46.547Z,5.60
2017-12-19T17:24:14.772Z,5.60
2017-12-19T17:26:42.244Z,5.60
2017-12-19T17:29:09.699Z,5.70
2017-12-19T17:31:37.173Z,5.70
2017-12-19T17:34:04.636Z,5.60
2017-12-19T17:36:32.115Z,5.70
2017-12-19T17:39:00.340Z,5.60
2017-12-19T17:41:27.812Z,5.60
2017-12-19T17:43:55.272Z,5.60
2017-12-19T17:46:22.743Z,5.60
2017-12-19T17:48:50.215Z,5.50
2017-12-19T17:51:18.439Z,5.50
2017-12-19T17:53:45.910Z,5.50
2017-12-19T17:56:13.895Z,5.50
2017-12-19T17:58:41.371Z,5.50
2017-12-19T18:01:09.601Z,5.50
2017-12-19T18:03:37.079Z,5.50
2017-12-19T18:06:04.532Z,5.50
2017-12-19T18:08:32.004Z,5.50
2017-12-19T18:10:59.467Z,5.50
2017-12-19T18:13:27.703Z,5.60
2017-12-19T18:15:55.168Z,5.60
2017-12-19T18:18:22.635Z,5.70
2017-12-19T18:20:50.094Z,5.70
2017-12-19T18:23:17.563Z,5.70
2017-12-19T18:25:45.027Z,5.60
2017-12-19T18:28:12.499Z,5.60
2017-12-19T18:30:40.719Z,5.60
2017-12-19T18:33:08.195Z,5.60
2017-12-19T18:35:35.653Z,5.60
2017-12-19T18:38:03.116Z,5.60
2017-12-19T18:40:30.586Z,5.60
2017-12-19T18:42:58.046Z,5.60
2017-12-19T18:45:26.270Z,5.50
2017-12-19T18:47:53.753Z,5.50
2017-12-19T18:50:21.204Z,5.60
2017-12-19T18:52:48.671Z,5.60
2017-12-19T18:55:16.132Z,5.60
2017-12-19T18:57:43.602Z,5.60
2017-12-19T19:00:11.063Z,5.60
2017-12-19T19:02:39.299Z,5.60
2017-12-19T19:05:06.763Z,5.60
2017-12-19T19:07:34.288Z,5.60
2017-12-19T19:10:01.751Z,5.60
2017-12-19T19:12:29.213Z,5.60
2017-12-19T19:14:56.687Z,5.60
2017-12-19T19:17:24.143Z,5.50
2017-12-19T19:19:51.623Z,5.60
2017-12-19T19:22:19.080Z,5.60
2017-12-19T19:24:46.556Z,5.60
2017-12-19T19:27:15.323Z,5.70
2017-12-19T19:29:42.795Z,5.70
2017-12-19T19:32:11.019Z,5.60
2017-12-19T19:34:38.491Z,5.60
2017-12-19T19:37:05.951Z,5.60
2017-12-19T19:39:33.418Z,5.60
2017-12-19T19:42:00.881Z,5.60
2017-12-19T19:44:28.352Z,5.60
2017-12-19T19:46:56.575Z,5.70
2017-12-19T19:49:24.042Z,5.60
2017-12-19T19:51:51.511Z,5.70
2017-12-19T19:54:18.975Z,5.70
2017-12-19T19:56:46.439Z,5.70
2017-12-19T19:59:13.908Z,5.80
2017-12-19T20:01:41.406Z,5.80
2017-12-19T20:04:08.839Z,5.80
2017-12-19T20:06:37.066Z,5.70
2017-12-19T20:09:04.551Z,5.70
2017-12-19T20:11:32.011Z,5.70
2017-12-19T20:13:59.479Z,5.70
2017-12-19T20:16:27.703Z,5.70
2017-12-19T20:18:55.171Z,5.70
2017-12-19T20:21:22.636Z,5.70
2017-12-19T20:23:50.142Z,5.70
2017-12-19T20:26:18.437Z,5.80
2017-12-19T20:28:45.899Z,5.80
2017-12-19T20:31:13.365Z,5.70
2017-12-19T20:33:40.834Z,5.70
2017-12-19T20:36:08.295Z,5.60
2017-12-19T20:38:35.776Z,5.60
2017-12-19T20:41:03.328Z,5.70
2017-12-19T20:43:30.795Z,5.60
2017-12-19T20:45:58.251Z,5.60
2017-12-19T20:48:25.727Z,5.60
2017-12-19T20:50:53.192Z,5.70
2017-12-19T20:53:20.648Z,5.70
2017-12-19T20:55:48.120Z,5.70
2017-12-19T20:58:15.580Z,5.70
2017-12-19T21:00:43.065Z,5.70
2017-12-19T21:03:10.523Z,5.80
2017-12-19T21:05:38.000Z,5.80
2017-12-19T21:08:05.452Z,5.70
2017-12-19T21:10:32.942Z,5.70
2017-12-19T21:13:00.385Z,5.70
2017-12-19T21:15:28.619Z,5.70
2017-12-19T21:17:56.075Z,5.70
2017-12-19T21:20:23.556Z,5.70
2017-12-19T21:22:51.008Z,5.70
2017-12-19T21:25:18.483Z,5.70
2017-12-19T21:27:46.716Z,5.70
2017-12-19T21:30:14.187Z,5.70
2017-12-19T21:32:41.644Z,5.80
2017-12-19T21:35:09.122Z,5.80
2017-12-19T21:37:36.573Z,5.80
2017-12-19T21:40:04.047Z,5.70
2017-12-19T21:42:32.267Z,5.80
2017-12-19T21:44:59.744Z,5.70
2017-12-19T21:47:27.204Z,5.70
2017-12-19T21:49:54.676Z,5.60
2017-12-19T21:52:22.132Z,5.60
2017-12-19T21:54:49.617Z,5.60
2017-12-19T21:57:17.845Z,5.60
2017-12-19T21:59:45.311Z,5.60
2017-12-19T22:02:12.768Z,5.60
2017-12-19T22:04:40.240Z,5.70
2017-12-19T22:07:07.695Z,5.80
2017-12-19T22:09:35.171Z,5.80
2017-12-19T22:12:03.399Z,5.80
2017-12-19T22:14:30.871Z,5.80
2017-12-19T22:16:58.328Z,5.80
2017-12-19T22:19:25.799Z,5.70
2017-12-19T22:21:54.026Z,5.90
2017-12-19T22:24:21.504Z,5.90
2017-12-19T22:26:49.724Z,5.90
2017-12-19T22:29:18.742Z,5.90
2017-12-19T22:31:46.196Z,5.90
2017-12-19T22:34:14.475Z,5.90
2017-12-19T22:36:41.928Z,5.90
2017-12-19T22:39:10.263Z,5.90
2017-12-19T22:41:37.750Z,5.90
2017-12-19T22:44:05.208Z,5.90
2017-12-19T22:46:32.691Z,5.90
2017-12-19T22:49:03.594Z,5.90
2017-12-19T22:51:32.113Z,5.90
2017-12-19T22:53:59.763Z,5.90
2017-12-19T22:56:27.235Z,5.90
2017-12-19T22:58:54.690Z,6.00
2017-12-19T23:01:22.159Z,6.00
2017-12-19T23:03:52.739Z,6.00
2017-12-19T23:06:20.975Z,6.00
2017-12-19T23:08:51.355Z,6.00
2017-12-19T23:11:18.827Z,6.10
2017-12-19T23:13:48.918Z,6.00
2017-12-19T23:16:16.392Z,6.00
2017-12-19T23:18:44.579Z,6.00
2017-12-19T23:21:12.051Z,6.00
2017-12-19T23:23:40.183Z,5.90
2017-12-19T23:26:08.367Z,5.90
2017-12-19T23:28:38.592Z,6.00
2017-12-19T23:31:06.059Z,5.90
2017-12-19T23:33:33.662Z,5.90
2017-12-19T23:36:02.076Z,6.00
2017-12-19T23:38:30.488Z,5.90
2017-12-19T23:41:00.805Z,5.90
2017-12-19T23:43:29.095Z,5.90
2017-12-19T23:45:56.676Z,5.90
2017-12-19T23:48:24.227Z,5.90
2017-12-19T23:50:54.519Z,5.90
2017-12-19T23:53:22.014Z,5.90
2017-12-19T23:55:50.183Z,5.90
2017-12-19T23:58:17.654Z,5.80
